UDYZ/EVN METAR and TAF weather

Enter ICAO airport designator
Station Type Date Time Source
UDYZ METAR 2019/06/27 08:00 UTC NOAA

UDYZ 270800Z VRB03KT 9999 FEW040 30/11 Q1012 R09/000070 NOSIG


Station Type Date Time Source
UDYZ Decoded METAR 2019/06/27 08:00 UTC NOAA

Station name not available
Jun 27, 2019 - 04:00 AM EDT / 2019.06.27 0800 UTC
Wind: Variable at 3 MPH (3 KT):0
Visibility: greater than 7 mile(s):0
Sky conditions: mostly clear
Temperature: 86 F (30 C)
Dew Point: 51 F (11 C)
Relative Humidity: 30%
Pressure (altimeter): 29.88 in. Hg (1012 hPa)
ob: UDYZ 270800Z VRB03KT 9999 FEW040 30/11 Q1012 R09/000070 NOSIG
cycle: 8

Station Type Date Time Source
UDYZ TAF 2019/06/27 06:00 UTC NOAA

TAF UDYZ 270502Z 2706/2806 19006KT 9999 FEW040
TEMPO 2708/2721 VRB16G26KT -TSRA BKN040CB

Example: see airport list